sensor_id;sensor_type;location;lat;lon;timestamp;P1;durP1;ratioP1;P2;durP2;ratioP2
60352;SDS011;46196;52.970;6.954;2023-07-08T00:00:22;12.32;;;4.65;;
60352;SDS011;46196;52.970;6.954;2023-07-08T00:02:49;7.53;;;4.65;;
60352;SDS011;46196;52.970;6.954;2023-07-08T00:05:16;8.10;;;5.18;;
60352;SDS011;46196;52.970;6.954;2023-07-08T00:07:43;11.98;;;5.57;;
60352;SDS011;46196;52.970;6.954;2023-07-08T00:10:17;7.75;;;4.60;;
60352;SDS011;46196;52.970;6.954;2023-07-08T00:12:45;6.80;;;4.68;;
60352;SDS011;46196;52.970;6.954;2023-07-08T00:15:13;9.20;;;4.90;;
60352;SDS011;46196;52.970;6.954;2023-07-08T00:17:39;7.40;;;4.95;;
60352;SDS011;46196;52.970;6.954;2023-07-08T00:20:14;7.13;;;4.97;;
60352;SDS011;46196;52.970;6.954;2023-07-08T00:25:12;8.02;;;4.93;;
60352;SDS011;46196;52.970;6.954;2023-07-08T00:27:40;8.55;;;4.95;;
60352;SDS011;46196;52.970;6.954;2023-07-08T00:30:25;7.65;;;4.93;;
60352;SDS011;46196;52.970;6.954;2023-07-08T00:32:52;9.30;;;4.85;;
60352;SDS011;46196;52.970;6.954;2023-07-08T00:35:29;9.88;;;5.22;;
60352;SDS011;46196;52.970;6.954;2023-07-08T00:37:56;8.00;;;5.20;;
60352;SDS011;46196;52.970;6.954;2023-07-08T00:40:28;7.72;;;5.07;;
60352;SDS011;46196;52.970;6.954;2023-07-08T00:50:44;9.57;;;5.07;;
60352;SDS011;46196;52.970;6.954;2023-07-08T00:53:21;8.30;;;5.50;;
60352;SDS011;46196;52.970;6.954;2023-07-08T00:55:47;10.98;;;5.47;;
60352;SDS011;46196;52.970;6.954;2023-07-08T00:58:13;10.02;;;5.47;;
60352;SDS011;46196;52.970;6.954;2023-07-08T01:00:41;9.82;;;4.63;;
60352;SDS011;46196;52.970;6.954;2023-07-08T01:03:07;12.25;;;5.70;;
60352;SDS011;46196;52.970;6.954;2023-07-08T01:05:33;10.05;;;5.75;;
60352;SDS011;46196;52.970;6.954;2023-07-08T01:08:00;10.48;;;5.50;;
60352;SDS011;46196;52.970;6.954;2023-07-08T01:10:31;9.70;;;5.38;;
60352;SDS011;46196;52.970;6.954;2023-07-08T01:13:02;11.18;;;5.40;;
60352;SDS011;46196;52.970;6.954;2023-07-08T01:15:31;11.45;;;5.38;;
60352;SDS011;46196;52.970;6.954;2023-07-08T01:18:03;9.70;;;5.53;;
60352;SDS011;46196;52.970;6.954;2023-07-08T01:20:28;9.73;;;5.18;;
60352;SDS011;46196;52.970;6.954;2023-07-08T01:22:54;9.05;;;5.78;;
60352;SDS011;46196;52.970;6.954;2023-07-08T01:25:20;11.23;;;5.90;;
60352;SDS011;46196;52.970;6.954;2023-07-08T01:27:47;9.85;;;6.15;;
60352;SDS011;46196;52.970;6.954;2023-07-08T01:30:17;11.73;;;6.07;;
60352;SDS011;46196;52.970;6.954;2023-07-08T01:32:47;9.70;;;5.22;;
60352;SDS011;46196;52.970;6.954;2023-07-08T01:35:15;12.50;;;6.07;;
60352;SDS011;46196;52.970;6.954;2023-07-08T01:37:46;10.25;;;6.22;;
60352;SDS011;46196;52.970;6.954;2023-07-08T01:40:26;11.40;;;5.97;;
60352;SDS011;46196;52.970;6.954;2023-07-08T01:42:57;10.32;;;5.72;;
60352;SDS011;46196;52.970;6.954;2023-07-08T01:45:24;10.70;;;5.70;;
60352;SDS011;46196;52.970;6.954;2023-07-08T01:50:36;13.77;;;6.28;;
60352;SDS011;46196;52.970;6.954;2023-07-08T01:53:27;8.98;;;6.05;;
60352;SDS011;46196;52.970;6.954;2023-07-08T01:55:57;11.00;;;6.35;;
60352;SDS011;46196;52.970;6.954;2023-07-08T01:58:23;11.80;;;6.05;;
60352;SDS011;46196;52.970;6.954;2023-07-08T02:00:50;11.95;;;6.55;;
60352;SDS011;46196;52.970;6.954;2023-07-08T02:03:16;10.88;;;6.28;;
60352;SDS011;46196;52.970;6.954;2023-07-08T02:05:42;13.80;;;7.03;;
60352;SDS011;46196;52.970;6.954;2023-07-08T02:08:08;13.20;;;6.70;;
60352;SDS011;46196;52.970;6.954;2023-07-08T02:10:34;13.65;;;6.50;;
60352;SDS011;46196;52.970;6.954;2023-07-08T02:12:59;11.38;;;6.43;;
60352;SDS011;46196;52.970;6.954;2023-07-08T02:15:25;10.50;;;6.40;;
60352;SDS011;46196;52.970;6.954;2023-07-08T02:17:51;11.73;;;6.32;;
60352;SDS011;46196;52.970;6.954;2023-07-08T02:20:17;10.25;;;6.85;;
60352;SDS011;46196;52.970;6.954;2023-07-08T02:22:43;14.20;;;6.78;;
60352;SDS011;46196;52.970;6.954;2023-07-08T02:25:09;10.20;;;5.43;;
60352;SDS011;46196;52.970;6.954;2023-07-08T02:27:35;12.88;;;5.90;;
60352;SDS011;46196;52.970;6.954;2023-07-08T02:30:01;10.15;;;5.70;;
60352;SDS011;46196;52.970;6.954;2023-07-08T02:32:27;14.00;;;6.85;;
60352;SDS011;46196;52.970;6.954;2023-07-08T02:34:53;12.13;;;6.45;;
60352;SDS011;46196;52.970;6.954;2023-07-08T02:37:19;12.13;;;7.13;;
60352;SDS011;46196;52.970;6.954;2023-07-08T02:39:44;11.63;;;5.82;;
60352;SDS011;46196;52.970;6.954;2023-07-08T02:42:10;12.38;;;6.82;;
60352;SDS011;46196;52.970;6.954;2023-07-08T02:44:36;10.50;;;6.22;;
60352;SDS011;46196;52.970;6.954;2023-07-08T02:47:02;12.00;;;6.53;;
60352;SDS011;46196;52.970;6.954;2023-07-08T02:49:29;14.60;;;7.30;;
60352;SDS011;46196;52.970;6.954;2023-07-08T02:51:55;10.82;;;6.53;;
60352;SDS011;46196;52.970;6.954;2023-07-08T02:54:20;11.02;;;6.78;;
60352;SDS011;46196;52.970;6.954;2023-07-08T02:56:46;13.05;;;6.97;;
60352;SDS011;46196;52.970;6.954;2023-07-08T02:59:12;10.20;;;6.68;;
60352;SDS011;46196;52.970;6.954;2023-07-08T03:01:37;9.88;;;6.30;;
60352;SDS011;46196;52.970;6.954;2023-07-08T03:04:13;13.10;;;7.07;;
60352;SDS011;46196;52.970;6.954;2023-07-08T03:06:42;14.35;;;7.18;;
60352;SDS011;46196;52.970;6.954;2023-07-08T03:09:09;14.65;;;8.15;;
60352;SDS011;46196;52.970;6.954;2023-07-08T03:11:37;13.00;;;8.02;;
60352;SDS011;46196;52.970;6.954;2023-07-08T03:14:04;11.50;;;6.70;;
60352;SDS011;46196;52.970;6.954;2023-07-08T03:16:30;19.27;;;7.70;;
60352;SDS011;46196;52.970;6.954;2023-07-08T03:18:55;12.43;;;7.53;;
60352;SDS011;46196;52.970;6.954;2023-07-08T03:21:21;16.80;;;7.47;;
60352;SDS011;46196;52.970;6.954;2023-07-08T03:23:48;12.23;;;7.45;;
60352;SDS011;46196;52.970;6.954;2023-07-08T03:26:14;12.65;;;6.60;;
60352;SDS011;46196;52.970;6.954;2023-07-08T03:28:42;12.25;;;6.90;;
60352;SDS011;46196;52.970;6.954;2023-07-08T03:31:09;15.30;;;8.05;;
60352;SDS011;46196;52.970;6.954;2023-07-08T03:33:35;13.82;;;7.68;;
60352;SDS011;46196;52.970;6.954;2023-07-08T03:36:02;12.48;;;7.78;;
60352;SDS011;46196;52.970;6.954;2023-07-08T03:38:28;13.18;;;7.50;;
60352;SDS011;46196;52.970;6.954;2023-07-08T03:40:54;12.90;;;8.18;;
60352;SDS011;46196;52.970;6.954;2023-07-08T03:43:20;14.68;;;7.72;;
60352;SDS011;46196;52.970;6.954;2023-07-08T03:45:46;15.98;;;7.80;;
60352;SDS011;46196;52.970;6.954;2023-07-08T03:48:12;13.60;;;7.50;;
60352;SDS011;46196;52.970;6.954;2023-07-08T03:50:37;15.63;;;7.57;;
60352;SDS011;46196;52.970;6.954;2023-07-08T03:53:04;15.20;;;8.43;;
60352;SDS011;46196;52.970;6.954;2023-07-08T03:55:30;14.55;;;7.90;;
60352;SDS011;46196;52.970;6.954;2023-07-08T03:57:56;12.43;;;7.15;;
60352;SDS011;46196;52.970;6.954;2023-07-08T04:00:21;10.93;;;7.32;;
60352;SDS011;46196;52.970;6.954;2023-07-08T04:02:47;16.25;;;7.57;;
60352;SDS011;46196;52.970;6.954;2023-07-08T04:05:17;12.57;;;8.30;;
60352;SDS011;46196;52.970;6.954;2023-07-08T04:07:45;13.00;;;7.55;;
60352;SDS011;46196;52.970;6.954;2023-07-08T04:10:12;18.90;;;8.60;;
60352;SDS011;46196;52.970;6.954;2023-07-08T04:12:38;16.70;;;8.25;;
60352;SDS011;46196;52.970;6.954;2023-07-08T04:15:05;12.38;;;8.60;;
60352;SDS011;46196;52.970;6.954;2023-07-08T04:17:36;13.93;;;9.10;;
60352;SDS011;46196;52.970;6.954;2023-07-08T04:20:07;18.42;;;8.95;;
60352;SDS011;46196;52.970;6.954;2023-07-08T04:22:37;14.82;;;9.05;;
60352;SDS011;46196;52.970;6.954;2023-07-08T04:25:02;12.77;;;7.18;;
60352;SDS011;46196;52.970;6.954;2023-07-08T04:27:29;16.38;;;8.32;;
60352;SDS011;46196;52.970;6.954;2023-07-08T04:29:54;18.13;;;8.48;;
60352;SDS011;46196;52.970;6.954;2023-07-08T04:32:20;17.48;;;8.60;;
60352;SDS011;46196;52.970;6.954;2023-07-08T04:37:18;19.67;;;7.90;;
60352;SDS011;46196;52.970;6.954;2023-07-08T04:39:44;13.73;;;8.25;;
60352;SDS011;46196;52.970;6.954;2023-07-08T04:42:11;15.63;;;8.27;;
60352;SDS011;46196;52.970;6.954;2023-07-08T04:44:42;17.45;;;8.40;;
60352;SDS011;46196;52.970;6.954;2023-07-08T04:47:07;17.33;;;8.30;;
60352;SDS011;46196;52.970;6.954;2023-07-08T04:49:34;12.93;;;8.60;;
60352;SDS011;46196;52.970;6.954;2023-07-08T04:52:00;15.20;;;8.65;;
60352;SDS011;46196;52.970;6.954;2023-07-08T04:54:27;14.60;;;8.02;;
60352;SDS011;46196;52.970;6.954;2023-07-08T04:56:54;20.35;;;8.38;;
60352;SDS011;46196;52.970;6.954;2023-07-08T04:59:23;18.92;;;8.68;;
60352;SDS011;46196;52.970;6.954;2023-07-08T05:01:50;15.40;;;8.38;;
60352;SDS011;46196;52.970;6.954;2023-07-08T05:04:18;18.05;;;8.52;;
60352;SDS011;46196;52.970;6.954;2023-07-08T05:06:45;11.70;;;8.13;;
60352;SDS011;46196;52.970;6.954;2023-07-08T05:09:11;14.57;;;8.70;;
60352;SDS011;46196;52.970;6.954;2023-07-08T05:11:37;14.07;;;8.63;;
60352;SDS011;46196;52.970;6.954;2023-07-08T05:14:04;15.02;;;8.27;;
60352;SDS011;46196;52.970;6.954;2023-07-08T05:16:32;16.65;;;7.97;;
60352;SDS011;46196;52.970;6.954;2023-07-08T05:21:25;14.30;;;7.93;;
60352;SDS011;46196;52.970;6.954;2023-07-08T05:23:52;13.93;;;7.55;;
60352;SDS011;46196;52.970;6.954;2023-07-08T05:26:18;15.75;;;8.80;;
60352;SDS011;46196;52.970;6.954;2023-07-08T05:28:44;12.90;;;8.18;;
60352;SDS011;46196;52.970;6.954;2023-07-08T05:31:11;16.50;;;9.57;;
60352;SDS011;46196;52.970;6.954;2023-07-08T05:33:37;14.95;;;8.55;;
60352;SDS011;46196;52.970;6.954;2023-07-08T05:36:02;14.65;;;8.15;;
60352;SDS011;46196;52.970;6.954;2023-07-08T05:38:29;13.60;;;8.18;;
60352;SDS011;46196;52.970;6.954;2023-07-08T05:40:55;17.77;;;9.02;;
60352;SDS011;46196;52.970;6.954;2023-07-08T05:43:22;14.43;;;8.60;;
60352;SDS011;46196;52.970;6.954;2023-07-08T05:45:48;16.50;;;9.15;;
60352;SDS011;46196;52.970;6.954;2023-07-08T05:48:14;15.40;;;8.32;;
60352;SDS011;46196;52.970;6.954;2023-07-08T05:50:40;18.58;;;9.75;;
60352;SDS011;46196;52.970;6.954;2023-07-08T05:53:08;13.10;;;8.48;;
60352;SDS011;46196;52.970;6.954;2023-07-08T05:55:34;14.02;;;9.57;;
60352;SDS011;46196;52.970;6.954;2023-07-08T05:58:00;16.65;;;9.02;;
60352;SDS011;46196;52.970;6.954;2023-07-08T06:00:27;12.02;;;7.80;;
60352;SDS011;46196;52.970;6.954;2023-07-08T06:02:53;14.35;;;8.98;;
60352;SDS011;46196;52.970;6.954;2023-07-08T06:05:18;14.60;;;8.52;;
60352;SDS011;46196;52.970;6.954;2023-07-08T06:07:44;18.60;;;8.93;;
60352;SDS011;46196;52.970;6.954;2023-07-08T06:10:10;15.88;;;8.68;;
60352;SDS011;46196;52.970;6.954;2023-07-08T06:12:36;12.73;;;8.10;;
60352;SDS011;46196;52.970;6.954;2023-07-08T06:15:01;12.40;;;7.57;;
60352;SDS011;46196;52.970;6.954;2023-07-08T06:17:27;14.93;;;8.15;;
60352;SDS011;46196;52.970;6.954;2023-07-08T06:19:53;14.85;;;7.80;;
60352;SDS011;46196;52.970;6.954;2023-07-08T06:22:19;16.90;;;8.85;;
60352;SDS011;46196;52.970;6.954;2023-07-08T06:24:45;11.68;;;7.65;;
60352;SDS011;46196;52.970;6.954;2023-07-08T06:27:12;13.13;;;7.78;;
60352;SDS011;46196;52.970;6.954;2023-07-08T06:29:39;17.50;;;8.05;;
60352;SDS011;46196;52.970;6.954;2023-07-08T06:32:04;15.63;;;8.20;;
60352;SDS011;46196;52.970;6.954;2023-07-08T06:34:31;12.43;;;7.88;;
60352;SDS011;46196;52.970;6.954;2023-07-08T06:36:57;16.55;;;8.27;;
60352;SDS011;46196;52.970;6.954;2023-07-08T06:39:22;16.60;;;8.43;;
60352;SDS011;46196;52.970;6.954;2023-07-08T06:41:48;14.65;;;7.40;;
60352;SDS011;46196;52.970;6.954;2023-07-08T06:44:14;14.60;;;7.75;;
60352;SDS011;46196;52.970;6.954;2023-07-08T06:46:40;12.52;;;7.55;;
60352;SDS011;46196;52.970;6.954;2023-07-08T06:49:06;13.98;;;7.57;;
60352;SDS011;46196;52.970;6.954;2023-07-08T06:51:37;16.73;;;7.85;;
60352;SDS011;46196;52.970;6.954;2023-07-08T06:54:03;12.43;;;8.55;;
60352;SDS011;46196;52.970;6.954;2023-07-08T06:56:37;12.25;;;7.38;;
60352;SDS011;46196;52.970;6.954;2023-07-08T06:59:04;15.00;;;7.30;;
60352;SDS011;46196;52.970;6.954;2023-07-08T07:01:29;12.73;;;7.75;;
60352;SDS011;46196;52.970;6.954;2023-07-08T07:03:55;15.55;;;7.82;;
60352;SDS011;46196;52.970;6.954;2023-07-08T07:06:21;15.82;;;8.10;;
60352;SDS011;46196;52.970;6.954;2023-07-08T07:08:47;12.32;;;7.10;;
60352;SDS011;46196;52.970;6.954;2023-07-08T07:11:13;13.27;;;7.57;;
60352;SDS011;46196;52.970;6.954;2023-07-08T07:13:38;16.75;;;8.35;;
60352;SDS011;46196;52.970;6.954;2023-07-08T07:16:04;12.40;;;7.35;;
60352;SDS011;46196;52.970;6.954;2023-07-08T07:18:30;13.75;;;7.60;;
60352;SDS011;46196;52.970;6.954;2023-07-08T07:20:57;12.38;;;7.70;;
60352;SDS011;46196;52.970;6.954;2023-07-08T07:23:23;12.43;;;6.93;;
60352;SDS011;46196;52.970;6.954;2023-07-08T07:25:49;11.98;;;7.10;;
60352;SDS011;46196;52.970;6.954;2023-07-08T07:28:16;12.68;;;6.97;;
60352;SDS011;46196;52.970;6.954;2023-07-08T07:30:43;11.68;;;7.03;;
60352;SDS011;46196;52.970;6.954;2023-07-08T07:33:10;11.00;;;7.35;;
60352;SDS011;46196;52.970;6.954;2023-07-08T07:35:41;9.70;;;7.07;;
60352;SDS011;46196;52.970;6.954;2023-07-08T07:38:07;12.27;;;6.88;;
60352;SDS011;46196;52.970;6.954;2023-07-08T07:40:33;10.20;;;6.93;;
60352;SDS011;46196;52.970;6.954;2023-07-08T07:42:59;9.32;;;6.22;;
60352;SDS011;46196;52.970;6.954;2023-07-08T07:45:24;11.48;;;6.63;;
60352;SDS011;46196;52.970;6.954;2023-07-08T07:47:50;10.63;;;6.93;;
60352;SDS011;46196;52.970;6.954;2023-07-08T07:50:16;11.38;;;6.70;;
60352;SDS011;46196;52.970;6.954;2023-07-08T07:52:42;9.75;;;6.10;;
60352;SDS011;46196;52.970;6.954;2023-07-08T07:55:07;10.07;;;6.90;;
60352;SDS011;46196;52.970;6.954;2023-07-08T07:57:33;12.70;;;5.82;;
60352;SDS011;46196;52.970;6.954;2023-07-08T07:59:59;10.63;;;5.85;;
60352;SDS011;46196;52.970;6.954;2023-07-08T08:02:25;11.93;;;6.70;;
60352;SDS011;46196;52.970;6.954;2023-07-08T08:04:50;9.65;;;5.95;;
60352;SDS011;46196;52.970;6.954;2023-07-08T08:07:16;11.50;;;6.28;;
60352;SDS011;46196;52.970;6.954;2023-07-08T08:09:42;7.70;;;5.65;;
60352;SDS011;46196;52.970;6.954;2023-07-08T08:12:08;9.18;;;6.03;;
60352;SDS011;46196;52.970;6.954;2023-07-08T08:14:37;7.70;;;5.40;;
60352;SDS011;46196;52.970;6.954;2023-07-08T08:17:03;8.70;;;6.00;;
60352;SDS011;46196;52.970;6.954;2023-07-08T08:19:29;7.78;;;5.35;;
60352;SDS011;46196;52.970;6.954;2023-07-08T08:21:56;9.10;;;5.32;;
60352;SDS011;46196;52.970;6.954;2023-07-08T08:24:22;12.13;;;5.72;;
60352;SDS011;46196;52.970;6.954;2023-07-08T08:26:48;9.50;;;5.40;;
60352;SDS011;46196;52.970;6.954;2023-07-08T08:29:14;10.65;;;5.45;;
60352;SDS011;46196;52.970;6.954;2023-07-08T08:31:39;12.30;;;5.57;;
60352;SDS011;46196;52.970;6.954;2023-07-08T08:34:05;8.55;;;5.13;;
60352;SDS011;46196;52.970;6.954;2023-07-08T08:36:31;10.00;;;5.40;;
60352;SDS011;46196;52.970;6.954;2023-07-08T08:38:57;9.80;;;5.60;;
60352;SDS011;46196;52.970;6.954;2023-07-08T08:41:29;6.95;;;4.82;;
60352;SDS011;46196;52.970;6.954;2023-07-08T08:43:58;9.20;;;5.05;;
60352;SDS011;46196;52.970;6.954;2023-07-08T08:51:55;8.95;;;4.97;;
60352;SDS011;46196;52.970;6.954;2023-07-08T08:54:23;9.48;;;5.20;;
60352;SDS011;46196;52.970;6.954;2023-07-08T08:56:59;8.13;;;5.32;;
60352;SDS011;46196;52.970;6.954;2023-07-08T09:04:53;9.00;;;5.13;;
60352;SDS011;46196;52.970;6.954;2023-07-08T09:09:50;8.32;;;5.32;;
60352;SDS011;46196;52.970;6.954;2023-07-08T09:12:38;8.95;;;5.30;;
60352;SDS011;46196;52.970;6.954;2023-07-08T09:15:14;8.02;;;5.15;;
60352;SDS011;46196;52.970;6.954;2023-07-08T09:17:40;8.10;;;5.20;;
60352;SDS011;46196;52.970;6.954;2023-07-08T09:20:27;8.73;;;5.85;;
60352;SDS011;46196;52.970;6.954;2023-07-08T09:22:56;5.55;;;4.70;;
60352;SDS011;46196;52.970;6.954;2023-07-08T09:28:02;9.43;;;5.15;;
60352;SDS011;46196;52.970;6.954;2023-07-08T09:30:28;9.13;;;4.95;;
60352;SDS011;46196;52.970;6.954;2023-07-08T09:32:55;6.32;;;4.78;;
60352;SDS011;46196;52.970;6.954;2023-07-08T09:35:28;8.02;;;5.00;;
60352;SDS011;46196;52.970;6.954;2023-07-08T09:38:07;8.60;;;4.68;;
60352;SDS011;46196;52.970;6.954;2023-07-08T09:40:34;6.95;;;4.85;;
60352;SDS011;46196;52.970;6.954;2023-07-08T09:43:01;6.80;;;4.93;;
60352;SDS011;46196;52.970;6.954;2023-07-08T09:45:40;5.50;;;4.75;;
60352;SDS011;46196;52.970;6.954;2023-07-08T09:48:19;8.10;;;4.68;;
60352;SDS011;46196;52.970;6.954;2023-07-08T09:50:51;6.30;;;4.88;;
60352;SDS011;46196;52.970;6.954;2023-07-08T09:53:18;7.05;;;5.25;;
60352;SDS011;46196;52.970;6.954;2023-07-08T09:55:44;7.85;;;4.88;;
60352;SDS011;46196;52.970;6.954;2023-07-08T09:58:28;7.35;;;5.13;;
60352;SDS011;46196;52.970;6.954;2023-07-08T10:01:10;7.55;;;5.22;;
60352;SDS011;46196;52.970;6.954;2023-07-08T10:03:38;8.23;;;5.10;;
60352;SDS011;46196;52.970;6.954;2023-07-08T10:06:24;7.18;;;4.78;;
60352;SDS011;46196;52.970;6.954;2023-07-08T10:08:53;7.85;;;4.90;;
60352;SDS011;46196;52.970;6.954;2023-07-08T10:14:01;8.57;;;5.10;;
60352;SDS011;46196;52.970;6.954;2023-07-08T10:16:47;6.78;;;4.97;;
60352;SDS011;46196;52.970;6.954;2023-07-08T10:19:14;6.90;;;4.72;;
60352;SDS011;46196;52.970;6.954;2023-07-08T10:27:03;8.45;;;4.97;;
60352;SDS011;46196;52.970;6.954;2023-07-08T10:42:57;8.25;;;4.65;;
60352;SDS011;46196;52.970;6.954;2023-07-08T10:53:54;7.65;;;5.82;;
60352;SDS011;46196;52.970;6.954;2023-07-08T10:56:44;7.03;;;4.70;;
60352;SDS011;46196;52.970;6.954;2023-07-08T11:08:07;7.28;;;4.63;;
60352;SDS011;46196;52.970;6.954;2023-07-08T11:14:01;6.85;;;4.75;;
60352;SDS011;46196;52.970;6.954;2023-07-08T11:16:37;7.10;;;5.03;;
60352;SDS011;46196;52.970;6.954;2023-07-08T11:19:10;6.85;;;4.85;;
60352;SDS011;46196;52.970;6.954;2023-07-08T11:21:45;6.80;;;4.88;;
60352;SDS011;46196;52.970;6.954;2023-07-08T11:24:16;6.82;;;4.53;;
60352;SDS011;46196;52.970;6.954;2023-07-08T11:26:51;10.80;;;4.78;;
60352;SDS011;46196;52.970;6.954;2023-07-08T11:29:22;11.35;;;4.40;;
60352;SDS011;46196;52.970;6.954;2023-07-08T11:31:55;7.68;;;5.32;;
60352;SDS011;46196;52.970;6.954;2023-07-08T11:34:22;6.78;;;4.75;;
60352;SDS011;46196;52.970;6.954;2023-07-08T11:36:50;6.03;;;4.53;;
60352;SDS011;46196;52.970;6.954;2023-07-08T11:39:39;7.82;;;4.72;;
60352;SDS011;46196;52.970;6.954;2023-07-08T11:42:13;7.07;;;4.65;;
60352;SDS011;46196;52.970;6.954;2023-07-08T11:44:52;7.35;;;4.95;;
60352;SDS011;46196;52.970;6.954;2023-07-08T11:47:35;10.55;;;4.88;;
60352;SDS011;46196;52.970;6.954;2023-07-08T11:50:29;7.38;;;4.70;;
60352;SDS011;46196;52.970;6.954;2023-07-08T11:53:34;8.35;;;4.72;;
60352;SDS011;46196;52.970;6.954;2023-07-08T11:58:52;8.25;;;5.07;;
60352;SDS011;46196;52.970;6.954;2023-07-08T12:01:30;7.45;;;5.00;;
60352;SDS011;46196;52.970;6.954;2023-07-08T12:09:12;7.60;;;4.93;;
60352;SDS011;46196;52.970;6.954;2023-07-08T12:11:43;9.48;;;5.20;;
60352;SDS011;46196;52.970;6.954;2023-07-08T12:14:09;6.47;;;4.78;;
60352;SDS011;46196;52.970;6.954;2023-07-08T12:16:35;7.95;;;4.57;;
60352;SDS011;46196;52.970;6.954;2023-07-08T12:19:01;7.82;;;4.82;;
60352;SDS011;46196;52.970;6.954;2023-07-08T12:21:29;6.85;;;4.97;;
60352;SDS011;46196;52.970;6.954;2023-07-08T12:24:02;8.35;;;5.20;;
60352;SDS011;46196;52.970;6.954;2023-07-08T12:26:35;8.55;;;5.07;;
60352;SDS011;46196;52.970;6.954;2023-07-08T12:29:01;6.68;;;5.18;;
60352;SDS011;46196;52.970;6.954;2023-07-08T12:31:28;9.05;;;5.15;;
60352;SDS011;46196;52.970;6.954;2023-07-08T12:33:57;10.60;;;5.78;;
60352;SDS011;46196;52.970;6.954;2023-07-08T12:36:24;10.32;;;5.07;;
60352;SDS011;46196;52.970;6.954;2023-07-08T12:38:53;9.95;;;5.70;;
60352;SDS011;46196;52.970;6.954;2023-07-08T12:41:22;7.03;;;5.25;;
60352;SDS011;46196;52.970;6.954;2023-07-08T12:43:50;8.70;;;5.40;;
60352;SDS011;46196;52.970;6.954;2023-07-08T12:46:18;7.90;;;5.13;;
60352;SDS011;46196;52.970;6.954;2023-07-08T12:48:45;8.03;;;5.27;;
60352;SDS011;46196;52.970;6.954;2023-07-08T12:51:12;7.90;;;5.22;;
60352;SDS011;46196;52.970;6.954;2023-07-08T12:53:39;7.95;;;5.82;;
60352;SDS011;46196;52.970;6.954;2023-07-08T12:56:06;8.63;;;5.13;;
60352;SDS011;46196;52.970;6.954;2023-07-08T12:58:42;8.63;;;5.25;;
60352;SDS011;46196;52.970;6.954;2023-07-08T13:01:45;7.47;;;5.30;;
60352;SDS011;46196;52.970;6.954;2023-07-08T13:04:09;8.70;;;5.57;;
60352;SDS011;46196;52.970;6.954;2023-07-08T13:06:37;8.02;;;5.28;;
60352;SDS011;46196;52.970;6.954;2023-07-08T13:09:08;8.02;;;5.18;;
60352;SDS011;46196;52.970;6.954;2023-07-08T13:11:34;7.68;;;5.28;;
60352;SDS011;46196;52.970;6.954;2023-07-08T13:14:03;8.27;;;5.20;;
60352;SDS011;46196;52.970;6.954;2023-07-08T13:16:32;7.72;;;5.57;;
60352;SDS011;46196;52.970;6.954;2023-07-08T13:19:00;8.57;;;5.40;;
60352;SDS011;46196;52.970;6.954;2023-07-08T13:21:26;8.88;;;5.43;;
60352;SDS011;46196;52.970;6.954;2023-07-08T13:23:55;8.82;;;5.43;;
60352;SDS011;46196;52.970;6.954;2023-07-08T13:26:21;9.48;;;5.80;;
60352;SDS011;46196;52.970;6.954;2023-07-08T13:28:49;9.63;;;5.32;;
60352;SDS011;46196;52.970;6.954;2023-07-08T13:31:23;9.95;;;5.57;;
60352;SDS011;46196;52.970;6.954;2023-07-08T13:33:56;8.00;;;5.40;;
60352;SDS011;46196;52.970;6.954;2023-07-08T13:36:35;9.25;;;5.47;;
60352;SDS011;46196;52.970;6.954;2023-07-08T13:39:06;8.40;;;5.80;;
60352;SDS011;46196;52.970;6.954;2023-07-08T13:41:33;7.88;;;5.28;;
60352;SDS011;46196;52.970;6.954;2023-07-08T13:44:04;7.47;;;5.20;;
60352;SDS011;46196;52.970;6.954;2023-07-08T13:49:19;8.57;;;5.57;;
60352;SDS011;46196;52.970;6.954;2023-07-08T13:51:50;10.48;;;6.20;;
60352;SDS011;46196;52.970;6.954;2023-07-08T13:54:21;8.52;;;5.30;;
60352;SDS011;46196;52.970;6.954;2023-07-08T13:56:49;9.85;;;5.68;;
60352;SDS011;46196;52.970;6.954;2023-07-08T13:59:25;10.82;;;6.30;;
60352;SDS011;46196;52.970;6.954;2023-07-08T14:01:53;10.93;;;5.45;;
60352;SDS011;46196;52.970;6.954;2023-07-08T14:04:21;10.63;;;5.80;;
60352;SDS011;46196;52.970;6.954;2023-07-08T14:06:59;11.45;;;6.07;;
60352;SDS011;46196;52.970;6.954;2023-07-08T14:09:25;7.85;;;5.00;;
60352;SDS011;46196;52.970;6.954;2023-07-08T14:11:51;8.75;;;6.07;;
60352;SDS011;46196;52.970;6.954;2023-07-08T14:14:17;9.50;;;5.53;;
60352;SDS011;46196;52.970;6.954;2023-07-08T14:16:51;8.63;;;6.00;;
60352;SDS011;46196;52.970;6.954;2023-07-08T14:19:22;8.90;;;6.03;;
60352;SDS011;46196;52.970;6.954;2023-07-08T14:21:54;8.80;;;5.72;;
60352;SDS011;46196;52.970;6.954;2023-07-08T14:24:21;9.95;;;6.18;;
60352;SDS011;46196;52.970;6.954;2023-07-08T14:26:47;9.10;;;5.30;;
60352;SDS011;46196;52.970;6.954;2023-07-08T14:29:13;7.40;;;5.32;;
60352;SDS011;46196;52.970;6.954;2023-07-08T14:31:39;8.68;;;5.82;;
60352;SDS011;46196;52.970;6.954;2023-07-08T14:34:07;9.70;;;6.03;;
60352;SDS011;46196;52.970;6.954;2023-07-08T14:36:36;9.77;;;5.80;;
60352;SDS011;46196;52.970;6.954;2023-07-08T14:39:09;9.73;;;5.82;;
60352;SDS011;46196;52.970;6.954;2023-07-08T14:41:38;10.18;;;5.97;;
60352;SDS011;46196;52.970;6.954;2023-07-08T14:44:21;9.00;;;5.50;;
60352;SDS011;46196;52.970;6.954;2023-07-08T14:46:52;11.32;;;6.30;;
60352;SDS011;46196;52.970;6.954;2023-07-08T14:49:19;8.77;;;6.10;;
60352;SDS011;46196;52.970;6.954;2023-07-08T14:51:46;11.10;;;5.63;;
60352;SDS011;46196;52.970;6.954;2023-07-08T14:54:12;7.72;;;5.65;;
60352;SDS011;46196;52.970;6.954;2023-07-08T14:56:38;9.07;;;5.82;;
60352;SDS011;46196;52.970;6.954;2023-07-08T14:59:05;8.93;;;5.97;;
60352;SDS011;46196;52.970;6.954;2023-07-08T15:01:36;8.38;;;5.75;;
60352;SDS011;46196;52.970;6.954;2023-07-08T15:04:02;11.57;;;6.20;;
60352;SDS011;46196;52.970;6.954;2023-07-08T15:06:35;8.75;;;5.53;;
60352;SDS011;46196;52.970;6.954;2023-07-08T15:09:01;9.48;;;6.38;;
60352;SDS011;46196;52.970;6.954;2023-07-08T15:11:26;8.90;;;5.55;;
60352;SDS011;46196;52.970;6.954;2023-07-08T15:13:52;9.88;;;6.30;;
60352;SDS011;46196;52.970;6.954;2023-07-08T15:16:18;10.07;;;6.20;;
60352;SDS011;46196;52.970;6.954;2023-07-08T15:18:45;9.52;;;5.72;;
60352;SDS011;46196;52.970;6.954;2023-07-08T15:21:12;9.40;;;5.65;;
60352;SDS011;46196;52.970;6.954;2023-07-08T15:23:39;8.13;;;5.88;;
60352;SDS011;46196;52.970;6.954;2023-07-08T15:26:05;10.15;;;6.50;;
60352;SDS011;46196;52.970;6.954;2023-07-08T15:28:39;9.70;;;6.57;;
60352;SDS011;46196;52.970;6.954;2023-07-08T15:31:08;8.27;;;5.72;;
60352;SDS011;46196;52.970;6.954;2023-07-08T15:33:38;9.05;;;6.45;;
60352;SDS011;46196;52.970;6.954;2023-07-08T15:36:09;8.75;;;5.68;;
60352;SDS011;46196;52.970;6.954;2023-07-08T15:38:36;9.05;;;5.57;;
60352;SDS011;46196;52.970;6.954;2023-07-08T15:41:02;10.65;;;6.20;;
60352;SDS011;46196;52.970;6.954;2023-07-08T15:43:29;8.52;;;5.50;;
60352;SDS011;46196;52.970;6.954;2023-07-08T15:45:55;11.55;;;6.50;;
60352;SDS011;46196;52.970;6.954;2023-07-08T15:48:21;11.38;;;6.82;;
60352;SDS011;46196;52.970;6.954;2023-07-08T15:50:47;11.20;;;6.85;;
60352;SDS011;46196;52.970;6.954;2023-07-08T15:53:14;8.65;;;6.35;;
60352;SDS011;46196;52.970;6.954;2023-07-08T15:55:42;8.18;;;6.45;;
60352;SDS011;46196;52.970;6.954;2023-07-08T16:00:38;8.93;;;5.78;;
60352;SDS011;46196;52.970;6.954;2023-07-08T16:03:19;9.90;;;6.45;;
60352;SDS011;46196;52.970;6.954;2023-07-08T16:05:46;21.05;;;7.10;;
60352;SDS011;46196;52.970;6.954;2023-07-08T16:08:12;11.88;;;7.25;;
60352;SDS011;46196;52.970;6.954;2023-07-08T16:10:38;11.73;;;6.43;;
60352;SDS011;46196;52.970;6.954;2023-07-08T16:13:04;10.48;;;6.90;;
60352;SDS011;46196;52.970;6.954;2023-07-08T16:15:32;8.63;;;6.40;;
60352;SDS011;46196;52.970;6.954;2023-07-08T16:17:59;12.63;;;7.60;;